Time;durP1;ratioP1;P1;durP2;ratioP2;P2;SDS_P1;SDS_P2;PMS_P1;PMS_P2;Temp;Humidity;BMP_temperature;BMP_pressure;BME280_temperature;BME280_humidity;BME280_pressure;Samples;Min_cycle;Max_cycle;Signal;HPM_P1;HPM_P2
2022/11/01 00:01:07;;;;;;;;;;;;;;;21.68;65.78;99367.06;7315027;19;129104;-37
2022/11/01 00:03:32;;;;;;;;;;;;;;;21.66;66.09;99365.59;7315567;19;128968;-31
2022/11/01 00:05:57;;;;;;;;;;;;;;;21.64;66.67;99368.34;7315537;19;129001;-34
2022/11/01 00:08:23;;;;;;;;;;;;;;;21.65;65.97;99375.22;7313967;19;130271;-31
2022/11/01 00:10:48;;;;;;;;;;;;;;;21.62;66.53;99375.50;7314908;19;129027;-32
2022/11/01 00:13:13;;;;;;;;;;;;;;;21.63;66.63;99366.72;7314580;19;128861;-37
2022/11/01 00:15:38;;;;;;;;;;;;;;;21.53;66.15;99347.63;7314458;19;129471;-33
2022/11/01 00:18:04;;;;;;;;;;;;;;;21.64;66.66;99370.13;7313517;19;129379;-33
2022/11/01 00:20:29;;;;;;;;;;;;;;;21.57;66.61;99354.19;7313301;19;129794;-30
2022/11/01 00:22:54;;;;;;;;;;;;;;;21.63;66.24;99377.19;7314328;19;128651;-33
2022/11/01 00:25:19;;;;;;;;;;;;;;;21.64;66.00;99378.81;7314857;19;130170;-32
2022/11/01 00:27:44;;;;;;;;;;;;;;;21.66;65.74;99376.03;7314023;19;129354;-33
2022/11/01 00:30:10;;;;;;;;;;;;;;;21.68;66.52;99385.38;7313958;19;129436;-34
2022/11/01 00:32:35;;;;;;;;;;;;;;;21.63;66.46;99377.19;7314002;19;129357;-33
2022/11/01 00:35:00;;;;;;;;;;;;;;;21.64;66.31;99376.19;7313361;19;130246;-32
2022/11/01 00:37:29;;;;;;;;;;;;;;;21.62;66.64;99375.50;7314556;19;129681;-32
2022/11/01 00:39:54;;;;;;;;;;;;;;;21.62;66.16;99370.28;7314114;19;130197;-34
2022/11/01 00:42:19;;;;;;;;;;;;;;;21.64;66.63;99373.56;7314798;19;129539;-28
2022/11/01 00:44:44;;;;;;;;;;;;;;;21.64;66.08;99373.56;7313814;19;129136;-43
2022/11/01 00:47:10;;;;;;;;;;;;;;;21.60;66.06;99372.22;7315284;19;129434;-31
2022/11/01 00:49:35;;;;;;;;;;;;;;;21.62;66.78;99375.50;7314644;19;129587;-34
2022/11/01 00:52:00;;;;;;;;;;;;;;;21.55;66.16;99353.50;7314937;19;128965;-36
2022/11/01 00:54:25;;;;;;;;;;;;;;;21.65;65.99;99364.75;7312931;19;129206;-34
2022/11/01 00:56:51;;;;;;;;;;;;;;;21.62;66.77;99364.22;7314331;19;129571;-32
2022/11/01 00:59:16;;;;;;;;;;;;;;;21.61;66.82;99347.72;7310989;19;129144;-32
2022/11/01 01:01:41;;;;;;;;;;;;;;;21.61;66.64;99350.31;7312052;19;130706;-30
2022/11/01 01:04:06;;;;;;;;;;;;;;;21.65;66.24;99343.81;7314474;19;129030;-31
2022/11/01 01:06:32;;;;;;;;;;;;;;;21.61;66.38;99337.25;7314003;19;129604;-32
2022/11/01 01:08:58;;;;;;;;;;;;;;;21.64;66.13;99347.41;7311828;19;128871;-38
2022/11/01 01:11:24;;;;;;;;;;;;;;;21.69;66.30;99336.50;7314812;19;130111;-29
2022/11/01 01:13:49;;;;;;;;;;;;;;;21.57;66.01;99320.19;7313619;19;129619;-35
2022/11/01 01:16:14;;;;;;;;;;;;;;;21.64;66.23;99329.09;7313534;19;131136;-32
2022/11/01 01:18:39;;;;;;;;;;;;;;;21.49;66.27;99322.72;7313052;19;130131;-35
2022/11/01 01:21:05;;;;;;;;;;;;;;;21.63;66.21;99330.09;7311948;19;128972;-33
2022/11/01 01:23:30;;;;;;;;;;;;;;;21.63;66.21;99332.69;7314126;19;129569;-36
2022/11/01 01:25:55;;;;;;;;;;;;;;;21.63;65.72;99330.09;7313777;19;129309;-31
2022/11/01 01:28:21;;;;;;;;;;;;;;;21.67;66.40;99325.34;7312231;19;129390;-32
2022/11/01 01:30:46;;;;;;;;;;;;;;;21.63;66.44;99322.25;7314102;19;129947;-33
2022/11/01 01:33:11;;;;;;;;;;;;;;;21.62;66.55;99315.34;7311774;19;129704;-34
2022/11/01 01:35:37;;;;;;;;;;;;;;;21.68;66.28;99319.97;7313134;19;129693;-32
2022/11/01 01:38:02;;;;;;;;;;;;;;;21.67;66.63;99312.28;7311770;19;129010;-32
2022/11/01 01:40:28;;;;;;;;;;;;;;;21.68;66.03;99312.13;7312088;19;129192;-38
2022/11/01 01:42:53;;;;;;;;;;;;;;;21.68;66.01;99312.13;7312311;19;129026;-33
2022/11/01 01:45:21;;;;;;;;;;;;;;;21.55;65.99;99295.97;7311636;19;130602;-34
2022/11/01 01:47:48;;;;;;;;;;;;;;;21.65;66.26;99309.00;7311695;19;129366;-34
2022/11/01 01:50:16;;;;;;;;;;;;;;;21.61;66.12;99311.09;7312929;19;129694;-33
2022/11/01 01:52:50;;;;;;;;;;;;;;;21.63;66.32;99300.47;7311992;19;130911;-35
2022/11/01 01:55:19;;;;;;;;;;;;;;;21.62;66.03;99298.81;7312570;19;129546;-28
2022/11/01 01:57:45;;;;;;;;;;;;;;;21.66;66.32;99292.31;7310317;19;129701;-37
2022/11/01 02:00:11;;;;;;;;;;;;;;;21.63;66.49;99290.84;7312094;19;129515;-30
2022/11/01 02:02:37;;;;;;;;;;;;;;;21.65;66.49;99291.50;7314203;19;129770;-32
2022/11/01 02:05:25;;;;;;;;;;;;;;;21.53;66.63;99277.00;7311891;19;129558;-29
2022/11/01 02:07:50;;;;;;;;;;;;;;;21.63;66.40;99297.84;7310141;19;129912;-36
2022/11/01 02:10:16;;;;;;;;;;;;;;;21.54;66.13;99291.72;7313087;19;129661;-32
2022/11/01 02:12:46;;;;;;;;;;;;;;;21.66;66.59;99303.63;7310648;19;129047;-35
2022/11/01 02:15:12;;;;;;;;;;;;;;;21.63;66.61;99306.53;7311421;19;130167;-35
2022/11/01 02:17:52;;;;;;;;;;;;;;;21.62;66.81;99312.72;7311549;19;129898;-37
2022/11/01 02:20:39;;;;;;;;;;;;;;;21.63;66.08;99314.38;7310759;19;129043;-31
2022/11/01 02:23:05;;;;;;;;;;;;;;;21.66;66.82;99316.72;7311348;19;129486;-29
2022/11/01 02:25:30;;;;;;;;;;;;;;;21.64;66.30;99315.19;7310729;19;129206;-33
2022/11/01 02:28:15;;;;;;;;;;;;;;;21.66;66.55;99313.25;7310210;19;129390;-32
2022/11/01 02:30:43;;;;;;;;;;;;;;;21.62;66.59;99306.66;7312035;19;129410;-35
2022/11/01 02:33:24;;;;;;;;;;;;;;;21.63;66.04;99310.94;7312549;19;129138;-30
2022/11/01 02:36:04;;;;;;;;;;;;;;;21.64;66.70;99310.78;7310902;19;130707;-30
2022/11/01 02:38:32;;;;;;;;;;;;;;;21.63;65.96;99303.94;7309401;19;129098;-31
2022/11/01 02:41:11;;;;;;;;;;;;;;;21.63;66.33;99297.84;7310300;19;129531;-33
2022/11/01 02:43:59;;;;;;;;;;;;;;;21.65;65.87;99303.78;7310335;19;129071;-33
2022/11/01 02:49:10;;;;;;;;;;;;;;;21.60;66.41;99304.19;7317297;19;129316;-31
2022/11/01 02:51:37;;;;;;;;;;;;;;;21.60;66.30;99298.16;7318489;19;129995;-32
2022/11/01 02:54:06;;;;;;;;;;;;;;;21.62;66.36;99302.25;7317583;19;129654;-38
2022/11/01 02:56:32;;;;;;;;;;;;;;;21.54;66.15;99289.09;7316717;19;129218;-34
2022/11/01 02:58:58;;;;;;;;;;;;;;;21.62;66.78;99298.81;7316135;19;129049;-33
2022/11/01 03:01:26;;;;;;;;;;;;;;;21.61;66.68;99295.41;7315773;19;129124;-29
2022/11/01 03:03:53;;;;;;;;;;;;;;;21.65;66.48;99291.50;7317239;19;129734;-35
2022/11/01 03:06:24;;;;;;;;;;;;;;;21.68;65.79;99285.97;7316626;19;129256;-31
2022/11/01 03:08:56;;;;;;;;;;;;;;;21.67;65.84;99304.44;7316241;19;129187;-37
2022/11/01 03:11:23;;;;;;;;;;;;;;;21.56;66.23;99295.00;7316955;19;128859;-33
2022/11/01 03:14:07;;;;;;;;;;;;;;;21.64;66.27;99312.56;7317320;19;128933;-36
2022/11/01 03:16:34;;;;;;;;;;;;;;;21.63;66.85;99296.06;7317216;19;129293;-33
2022/11/01 03:19:05;;;;;;;;;;;;;;;21.61;66.48;99295.41;7315402;19;129852;-32
2022/11/01 03:21:34;;;;;;;;;;;;;;;21.66;65.95;99295.78;7315781;19;129739;-34
2022/11/01 03:24:07;;;;;;;;;;;;;;;21.67;65.83;99301.81;7316263;19;129376;-30
2022/11/01 03:26:33;;;;;;;;;;;;;;;21.64;66.00;99310.78;7315487;19;130150;-33
2022/11/01 03:29:01;;;;;;;;;;;;;;;21.64;66.01;99299.50;7316508;19;128917;-33
2022/11/01 03:31:29;;;;;;;;;;;;;;;21.66;65.99;99303.63;7316521;19;130939;-33
2022/11/01 03:34:02;;;;;;;;;;;;;;;21.65;65.79;99307.19;7316549;19;129079;-31
2022/11/01 03:36:34;;;;;;;;;;;;;;;21.66;65.88;99295.78;7315181;19;129579;-38
2022/11/01 03:39:02;;;;;;;;;;;;;;;21.66;66.60;99303.63;7315743;19;129300;-33
2022/11/01 03:41:31;;;;;;;;;;;;;;;21.65;65.92;99306.38;7316528;19;129674;-32
2022/11/01 03:43:58;;;;;;;;;;;;;;;21.61;66.38;99305.03;7315859;19;129609;-30
2022/11/01 03:46:23;;;;;;;;;;;;;;;21.63;65.96;99305.72;7315149;19;129270;-33
2022/11/01 03:48:48;;;;;;;;;;;;;;;21.65;66.05;99316.84;7314690;19;128972;-36
2022/11/01 03:51:14;;;;;;;;;;;;;;;21.64;65.99;99317.81;7316207;19;128945;-30
2022/11/01 03:53:39;;;;;;;;;;;;;;;21.62;65.94;99322.34;7315681;19;129495;-33
2022/11/01 03:56:04;;;;;;;;;;;;;;;21.63;66.13;99319.63;7313650;19;130048;-29
2022/11/01 03:58:40;;;;;;;;;;;;;;;21.66;66.59;99339.41;7316279;19;128944;-35
2022/11/01 04:01:06;;;;;;;;;;;;;;;21.68;66.37;99337.50;7315500;19;131687;-31
2022/11/01 04:03:31;;;;;;;;;;;;;;;21.65;66.37;99338.59;7314544;19;129845;-30
2022/11/01 04:05:56;;;;;;;;;;;;;;;21.63;66.71;99340.56;7315037;19;129862;-34
2022/11/01 04:08:21;;;;;;;;;;;;;;;21.66;66.69;99339.41;7314876;19;129324;-28
2022/11/01 04:10:47;;;;;;;;;;;;;;;21.66;65.80;99355.13;7316184;19;129510;-36
2022/11/01 04:13:12;;;;;;;;;;;;;;;21.67;65.77;99346.28;7315154;19;129111;-32
2022/11/01 04:21:09;;;;;;;;;;;;;;;21.54;66.51;99336.19;7313489;19;129223;-32
2022/11/01 04:23:34;;;;;;;;;;;;;;;21.62;66.46;99354.59;7315550;19;129112;-33
2022/11/01 04:26:00;;;;;;;;;;;;;;;21.61;65.90;99352.94;7315224;19;129681;-35
2022/11/01 04:28:25;;;;;;;;;;;;;;;21.63;66.60;99360.66;7314823;19;129893;-32
2022/11/01 04:30:50;;;;;;;;;;;;;;;21.64;66.08;99357.06;7315305;19;129628;-31
2022/11/01 04:33:16;;;;;;;;;;;;;;;21.65;66.47;99361.34;7314596;19;129150;-36
2022/11/01 04:35:41;;;;;;;;;;;;;;;21.62;65.99;99354.59;7313627;19;129832;-35
2022/11/01 04:38:08;;;;;;;;;;;;;;;21.63;65.97;99350.19;7313559;19;129213;-31
2022/11/01 04:40:33;;;;;;;;;;;;;;;21.63;66.62;99352.78;7314439;19;130681;-31
2022/11/01 04:42:58;;;;;;;;;;;;;;;21.64;66.44;99357.88;7314520;19;129167;-37
2022/11/01 04:45:24;;;;;;;;;;;;;;;21.62;66.75;99341.50;7313731;19;130157;-31
2022/11/01 04:47:59;;;;;;;;;;;;;;;21.65;66.30;99343.81;7313422;19;130566;-31
2022/11/01 04:50:25;;;;;;;;;;;;;;;21.68;65.75;99340.91;7313558;19;129363;-32
2022/11/01 04:52:50;;;;;;;;;;;;;;;21.66;66.66;99357.72;7312947;19;130572;-30
2022/11/01 04:55:15;;;;;;;;;;;;;;;21.65;66.26;99358.72;7313628;19;130267;-30
2022/11/01 04:57:41;;;;;;;;;;;;;;;21.65;66.69;99363.94;7310926;19;130683;-39
2022/11/01 05:00:06;;;;;;;;;;;;;;;21.64;66.14;99350.03;7312628;19;129533;-33
2022/11/01 05:02:32;;;;;;;;;;;;;;;21.66;65.81;99348.09;7310380;19;128978;-35
2022/11/01 05:04:57;;;;;;;;;;;;;;;21.64;66.54;99352.66;7312044;19;129638;-34
2022/11/01 05:07:23;;;;;;;;;;;;;;;21.65;66.67;99350.88;7305131;19;130569;-36
2022/11/01 05:09:48;;;;;;;;;;;;;;;21.63;66.34;99339.72;7310959;19;129005;-33
2022/11/01 05:12:13;;;;;;;;;;;;;;;21.66;66.23;99335.03;7313067;19;129450;-41
2022/11/01 05:14:38;;;;;;;;;;;;;;;21.65;66.50;99338.59;7312117;19;130294;-28
2022/11/01 05:17:04;;;;;;;;;;;;;;;21.64;66.81;99336.94;7310629;19;129311;-35
2022/11/01 05:19:29;;;;;;;;;;;;;;;21.67;65.92;99336.66;7306083;19;129118;-35
2022/11/01 05:21:54;;;;;;;;;;;;;;;21.62;65.82;99328.41;7307964;19;129601;-25
2022/11/01 05:24:19;;;;;;;;;;;;;;;21.62;65.93;99325.81;7310896;19;129674;-36
2022/11/01 05:26:44;;;;;;;;;;;;;;;21.62;66.71;99333.66;7312840;19;130005;-29
2022/11/01 05:29:10;;;;;;;;;;;;;;;21.50;66.17;99316.50;7307277;19;130685;-34
2022/11/01 05:31:35;;;;;;;;;;;;;;;21.63;66.04;99324.84;7311349;19;131078;-28
2022/11/01 05:34:01;;;;;;;;;;;;;;;21.64;66.74;99336.94;7310863;19;129897;-34
2022/11/01 05:36:26;;;;;;;;;;;;;;;21.62;66.28;99344.13;7308627;19;129670;-34
2022/11/01 05:38:54;;;;;;;;;;;;;;;21.62;66.46;99349.34;7311092;19;128822;-31
2022/11/01 05:41:20;;;;;;;;;;;;;;;21.66;66.46;99342.88;7308085;19;130063;-37
2022/11/01 05:43:45;;;;;;;;;;;;;;;21.52;66.44;99322.41;7306460;19;129889;-33
2022/11/01 05:46:10;;;;;;;;;;;;;;;21.54;65.91;99320.47;7301077;19;129346;-38
2022/11/01 05:48:35;;;;;;;;;;;;;;;21.69;66.05;99334.72;7302444;19;129165;-35
2022/11/01 05:51:01;;;;;;;;;;;;;;;21.65;65.90;99338.59;7304643;19;129953;-31
2022/11/01 05:53:26;;;;;;;;;;;;;;;21.69;66.07;99326.03;7304572;19;130278;-42
2022/11/01 05:55:54;;;;;;;;;;;;;;;21.66;66.37;99337.63;7307614;19;130551;-32
2022/11/01 05:58:19;;;;;;;;;;;;;;;21.64;66.54;99336.13;7304350;19;129996;-31
2022/11/01 06:00:45;;;;;;;;;;;;;;;21.62;66.19;99338.88;7307967;19;129444;-35
2022/11/01 06:03:10;;;;;;;;;;;;;;;21.65;66.40;99345.63;7298502;19;130795;-33
2022/11/01 06:05:36;;;;;;;;;;;;;;;21.61;66.43;99339.88;7308247;19;129347;-34
2022/11/01 06:08:02;;;;;;;;;;;;;;;21.61;66.73;99342.47;7304302;19;131110;-33
2022/11/01 06:10:28;;;;;;;;;;;;;;;21.64;66.53;99347.41;7307239;19;129475;-32
2022/11/01 06:12:53;;;;;;;;;;;;;;;21.71;65.75;99352.88;7304289;19;130461;-35
2022/11/01 06:15:19;;;;;;;;;;;;;;;21.70;65.99;99352.06;7312229;19;129949;-32
2022/11/01 06:17:44;;;;;;;;;;;;;;;21.68;66.20;99353.97;7309738;19;129861;-33
2022/11/01 06:20:10;;;;;;;;;;;;;;;21.66;65.93;99355.94;7307468;19;130564;-34
2022/11/01 06:22:35;;;;;;;;;;;;;;;21.66;66.12;99357.72;7307981;19;129651;-37
2022/11/01 06:25:01;;;;;;;;;;;;;;;21.66;66.17;99349.88;7311585;19;129857;-32
2022/11/01 06:27:26;;;;;;;;;;;;;;;21.67;66.48;99357.59;7310509;19;129466;-32
2022/11/01 06:29:52;;;;;;;;;;;;;;;21.60;66.20;99361.75;7310618;19;129109;-32
2022/11/01 06:32:17;;;;;;;;;;;;;;;21.54;65.95;99359.72;7311037;19;129485;-31
2022/11/01 06:34:42;;;;;;;;;;;;;;;21.65;66.41;99369.19;7310473;19;129186;-33
2022/11/01 06:37:07;;;;;;;;;;;;;;;21.65;66.34;99375.22;7310865;19;129548;-29
2022/11/01 06:39:33;;;;;;;;;;;;;;;21.65;65.89;99374.41;7311996;19;129022;-29
2022/11/01 06:41:58;;;;;;;;;;;;;;;21.66;66.24;99376.03;7309164;19;131188;-39
2022/11/01 06:44:23;;;;;;;;;;;;;;;21.56;65.90;99368.25;7310418;19;129047;-33
2022/11/01 06:46:48;;;;;;;;;;;;;;;21.65;65.88;99390.91;7310555;19;129601;-35
2022/11/01 06:49:13;;;;;;;;;;;;;;;21.65;65.64;99398.75;7305635;19;129441;-32
2022/11/01 06:51:39;;;;;;;;;;;;;;;21.64;65.75;99402.34;7311923;19;129618;-33
2022/11/01 06:54:04;;;;;;;;;;;;;;;21.64;65.90;99404.13;7309158;19;129562;-29
2022/11/01 06:56:29;;;;;;;;;;;;;;;21.65;66.30;99401.38;7309640;19;130353;-30
2022/11/01 06:58:54;;;;;;;;;;;;;;;21.62;66.52;99401.66;7305571;19;129708;-38
2022/11/01 07:01:21;;;;;;;;;;;;;;;21.62;66.62;99391.22;7309679;19;129341;-33
2022/11/01 07:03:52;;;;;;;;;;;;;;;21.64;66.50;99412.81;7311134;19;129137;-35
2022/11/01 07:06:18;;;;;;;;;;;;;;;21.61;66.16;99418.34;7308098;19;129194;-33
2022/11/01 07:08:43;;;;;;;;;;;;;;;21.62;65.98;99427.84;7307923;19;129909;-32
2022/11/01 07:11:08;;;;;;;;;;;;;;;21.62;65.86;99427.00;7310244;19;129358;-30
2022/11/01 07:13:36;;;;;;;;;;;;;;;21.67;65.70;99417.75;7310095;19;129752;-31
2022/11/01 07:16:03;;;;;;;;;;;;;;;21.51;65.90;99399.25;7308485;19;128920;-36
2022/11/01 07:18:29;;;;;;;;;;;;;;;21.67;65.95;99436.06;7307508;19;129742;-32
2022/11/01 07:20:54;;;;;;;;;;;;;;;21.62;66.43;99442.69;7310243;19;129545;-34
2022/11/01 07:23:20;;;;;;;;;;;;;;;21.59;66.46;99435.97;7308445;19;129048;-31
2022/11/01 07:25:49;;;;;;;;;;;;;;;21.64;66.40;99444.22;7303846;19;129048;-31
2022/11/01 07:28:14;;;;;;;;;;;;;;;21.62;66.03;99430.44;7308145;19;129660;-31
2022/11/01 07:30:39;;;;;;;;;;;;;;;21.64;66.37;99446.00;7309398;19;129233;-40
2022/11/01 07:33:05;;;;;;;;;;;;;;;21.60;66.05;99440.22;7313720;19;129065;-32
2022/11/01 07:35:30;;;;;;;;;;;;;;;21.64;66.43;99452.06;7316381;19;129066;-36
2022/11/01 07:37:56;;;;;;;;;;;;;;;21.62;66.41;99443.53;7313407;19;130544;-29
2022/11/01 07:40:26;;;;;;;;;;;;;;;21.66;65.97;99454.53;7317322;19;129150;-29
2022/11/01 07:42:52;;;;;;;;;;;;;;;21.54;65.93;99438.19;7310827;19;129771;-32
2022/11/01 07:45:17;;;;;;;;;;;;;;;21.58;65.97;99444.81;7314386;19;129371;-33
2022/11/01 07:47:42;;;;;;;;;;;;;;;21.63;65.93;99455.66;7315829;19;129410;-32
2022/11/01 07:50:08;;;;;;;;;;;;;;;21.60;66.44;99455.94;7315686;19;129589;-31
2022/11/01 07:52:33;;;;;;;;;;;;;;;21.61;66.36;99456.75;7315365;19;129147;-31
2022/11/01 07:54:58;;;;;;;;;;;;;;;21.69;66.01;99454.25;7315795;19;129260;-38
2022/11/01 07:57:23;;;;;;;;;;;;;;;21.64;66.34;99462.53;7315914;19;129171;-32
2022/11/01 07:59:48;;;;;;;;;;;;;;;21.65;66.06;99453.69;7310184;19;130037;-40
2022/11/01 08:02:14;;;;;;;;;;;;;;;21.62;66.39;99459.22;7309766;19;131084;-30
2022/11/01 08:04:39;;;;;;;;;;;;;;;21.64;66.60;99465.16;7307988;19;129556;-31
2022/11/01 08:07:05;;;;;;;;;;;;;;;21.61;66.27;99462.81;7312532;19;129076;-34
2022/11/01 08:09:30;;;;;;;;;;;;;;;21.64;66.03;99465.16;7313918;19;129192;-32
2022/11/01 08:11:55;;;;;;;;;;;;;;;21.60;65.98;99465.59;7314952;19;129625;-36
2022/11/01 08:14:20;;;;;;;;;;;;;;;21.65;66.06;99468.59;7312855;19;129487;-30
2022/11/01 08:16:54;;;;;;;;;;;;;;;21.63;66.31;99458.28;7314654;19;129223;-30
2022/11/01 08:19:19;;;;;;;;;;;;;;;21.54;66.29;99446.03;7308542;19;129185;-37
2022/11/01 08:21:44;;;;;;;;;;;;;;;21.63;66.16;99465.28;7313793;19;129043;-28
2022/11/01 08:24:10;;;;;;;;;;;;;;;21.62;66.60;99469.69;7308613;19;129510;-35
2022/11/01 08:26:35;;;;;;;;;;;;;;;21.67;65.84;99464.84;7311304;19;129938;-36
2022/11/01 08:29:01;;;;;;;;;;;;;;;21.62;65.89;99454.00;7311480;19;129326;-33
2022/11/01 08:31:26;;;;;;;;;;;;;;;21.61;66.61;99457.59;7314185;19;129371;-31
2022/11/01 08:33:51;;;;;;;;;;;;;;;21.65;66.29;99463.38;7312817;19;129074;-28
2022/11/01 08:36:16;;;;;;;;;;;;;;;21.61;66.33;99473.28;7314355;19;129635;-36
2022/11/01 08:38:43;;;;;;;;;;;;;;;21.60;65.67;99465.59;7312464;19;129214;-35
2022/11/01 08:41:08;;;;;;;;;;;;;;;21.59;66.19;99475.22;7314218;19;129146;-35
2022/11/01 08:43:33;;;;;;;;;;;;;;;21.59;65.82;99467.38;7313150;19;129548;-31
2022/11/01 08:45:58;;;;;;;;;;;;;;;21.54;65.85;99472.19;7311781;19;132155;-34
2022/11/01 08:48:24;;;;;;;;;;;;;;;21.60;65.84;99492.53;7311523;19;129364;-30
2022/11/01 08:50:49;;;;;;;;;;;;;;;21.62;65.71;99515.94;7311516;19;128955;-33
2022/11/01 08:53:14;;;;;;;;;;;;;;;21.61;66.61;99488.97;7311921;19;128843;-35
2022/11/01 08:55:40;;;;;;;;;;;;;;;21.64;65.90;99508.78;7312643;19;130223;-33
2022/11/01 08:58:06;;;;;;;;;;;;;;;21.63;66.16;99513.22;7310433;19;129582;-30
2022/11/01 09:00:31;;;;;;;;;;;;;;;21.63;66.50;99528.09;7312347;19;129566;-31
2022/11/01 09:02:56;;;;;;;;;;;;;;;21.55;66.63;99510.47;7308877;19;129686;-31
2022/11/01 09:05:22;;;;;;;;;;;;;;;21.61;66.11;99536.06;7307806;19;129179;-31
2022/11/01 09:07:48;;;;;;;;;;;;;;;21.61;65.88;99522.16;7310200;19;130215;-31
2022/11/01 09:10:15;;;;;;;;;;;;;;;21.57;66.04;99516.38;7308144;19;129929;-35
2022/11/01 09:12:40;;;;;;;;;;;;;;;21.64;65.98;99525.31;7307933;19;130150;-34
2022/11/01 09:15:05;;;;;;;;;;;;;;;21.62;66.27;99529.88;7311310;19;130097;-32
2022/11/01 09:17:30;;;;;;;;;;;;;;;21.59;66.13;99522.31;7306698;19;130229;-36
2022/11/01 09:19:56;;;;;;;;;;;;;;;21.64;65.81;99520.09;7311639;19;129601;-31
2022/11/01 09:22:21;;;;;;;;;;;;;;;21.64;65.69;99522.72;7309512;19;129697;-34
2022/11/01 09:24:47;;;;;;;;;;;;;;;21.61;66.10;99530.00;7310903;19;130264;-34
2022/11/01 09:27:12;;;;;;;;;;;;;;;21.63;66.27;99518.44;7310518;19;130267;-32
2022/11/01 09:29:37;;;;;;;;;;;;;;;21.64;66.48;99521.88;7313623;19;129417;-35
2022/11/01 09:32:03;;;;;;;;;;;;;;;21.63;66.56;99523.69;7309307;19;132052;-33
2022/11/01 09:34:28;;;;;;;;;;;;;;;21.61;66.33;99509.91;7307835;19;129905;-33
2022/11/01 09:36:53;;;;;;;;;;;;;;;21.63;65.83;99517.63;7310580;19;129675;-31
2022/11/01 09:39:20;;;;;;;;;;;;;;;21.62;66.15;99521.19;7310016;19;128928;-32
2022/11/01 09:42:06;;;;;;;;;;;;;;;21.60;66.54;99521.31;7310248;19;129715;-37
2022/11/01 09:44:37;;;;;;;;;;;;;;;21.62;66.47;99519.41;7306513;19;130629;-29
2022/11/01 09:47:11;;;;;;;;;;;;;;;21.61;65.99;99536.06;7310229;19;129175;-28
2022/11/01 09:49:39;;;;;;;;;;;;;;;21.60;66.62;99529.16;7309898;19;130650;-33
2022/11/01 09:52:05;;;;;;;;;;;;;;;21.58;66.51;99531.13;7307932;19;129030;-31
2022/11/01 09:54:30;;;;;;;;;;;;;;;21.51;66.19;99516.97;7308674;19;129293;-36
2022/11/01 09:56:55;;;;;;;;;;;;;;;21.64;66.59;99543.63;7308892;19;129796;-32
2022/11/01 09:59:42;;;;;;;;;;;;;;;21.65;66.54;99547.88;7309917;19;129108;-31
2022/11/01 10:02:17;;;;;;;;;;;;;;;21.64;65.80;99545.41;7311778;19;129250;-30
2022/11/01 10:05:06;;;;;;;;;;;;;;;21.62;66.04;99548.19;7309412;19;129432;-36
2022/11/01 10:07:31;;;;;;;;;;;;;;;21.63;66.14;99554.25;7309282;19;129753;-33
2022/11/01 10:10:03;;;;;;;;;;;;;;;21.58;65.92;99543.38;7312852;19;129005;-33
2022/11/01 10:12:37;;;;;;;;;;;;;;;21.61;66.74;99543.09;7312054;19;129314;-32
2022/11/01 10:15:21;;;;;;;;;;;;;;;21.63;66.06;99552.47;7310213;19;129235;-32
2022/11/01 10:17:46;;;;;;;;;;;;;;;21.60;65.92;99550.09;7310562;19;130863;-31
2022/11/01 10:20:12;;;;;;;;;;;;;;;21.60;66.27;99555.34;7312961;19;129279;-32
2022/11/01 10:22:39;;;;;;;;;;;;;;;21.61;65.79;99545.72;7308733;19;129024;-31
2022/11/01 10:25:11;;;;;;;;;;;;;;;21.60;65.82;99550.09;7311047;19;129117;-33
2022/11/01 10:27:42;;;;;;;;;;;;;;;21.59;66.03;99551.09;7307646;19;129315;-34
2022/11/01 10:30:14;;;;;;;;;;;;;;;21.64;65.73;99564.56;7307090;19;129269;-33
2022/11/01 10:33:01;;;;;;;;;;;;;;;21.62;65.89;99565.66;7309102;19;130423;-36
2022/11/01 10:35:26;;;;;;;;;;;;;;;21.57;65.95;99555.63;7311554;19;129182;-34
2022/11/01 10:38:10;;;;;;;;;;;;;;;21.50;65.88;99541.44;7307453;19;129357;-31
2022/11/01 10:40:40;;;;;;;;;;;;;;;21.60;65.82;99555.34;7311425;19;128972;-33
2022/11/01 10:43:16;;;;;;;;;;;;;;;21.58;66.40;99562.53;7307210;19;130704;-32
2022/11/01 10:45:43;;;;;;;;;;;;;;;21.52;66.37;99543.91;7309650;19;129222;-38
2022/11/01 10:48:14;;;;;;;;;;;;;;;21.62;66.42;99563.88;7307045;19;129620;-35
2022/11/01 10:50:40;;;;;;;;;;;;;;;21.63;66.54;99564.72;7310408;19;129360;-29
2022/11/01 10:53:07;;;;;;;;;;;;;;;21.52;65.92;99552.59;7304561;19;129362;-31
2022/11/01 10:55:42;;;;;;;;;;;;;;;21.65;65.86;99566.22;7306117;19;129687;-33
2022/11/01 10:58:17;;;;;;;;;;;;;;;21.60;66.31;99563.19;7305047;19;130066;-33
2022/11/01 11:00:43;;;;;;;;;;;;;;;21.61;66.42;99554.38;7310209;19;129104;-30
2022/11/01 11:03:16;;;;;;;;;;;;;;;21.62;65.85;99557.81;7309146;19;129033;-37
2022/11/01 11:05:42;;;;;;;;;;;;;;;21.60;66.44;99560.56;7308140;19;129789;-34
2022/11/01 11:08:15;;;;;;;;;;;;;;;21.63;66.09;99557.69;7317234;19;129650;-35
2022/11/01 11:10:41;;;;;;;;;;;;;;;21.60;66.40;99557.16;7317774;19;129383;-33
2022/11/01 11:13:08;;;;;;;;;;;;;;;21.57;66.09;99555.63;7308697;19;130018;-36
2022/11/01 11:15:42;;;;;;;;;;;;;;;21.59;66.55;99558.94;7311639;19;131049;-34
2022/11/01 11:18:14;;;;;;;;;;;;;;;21.62;66.30;99556.03;7311853;19;129533;-31
2022/11/01 11:20:40;;;;;;;;;;;;;;;21.67;65.92;99556.44;7314829;19;128953;-33
2022/11/01 11:23:07;;;;;;;;;;;;;;;21.54;66.07;99531.53;7313700;19;129874;-35
2022/11/01 11:25:35;;;;;;;;;;;;;;;21.61;66.39;99546.53;7313041;19;130692;-31
2022/11/01 11:28:01;;;;;;;;;;;;;;;21.61;65.89;99551.78;7311371;19;131820;-31
2022/11/01 11:30:31;;;;;;;;;;;;;;;21.57;65.90;99553.00;7315738;19;129969;-33
2022/11/01 11:32:57;;;;;;;;;;;;;;;21.59;66.17;99558.94;7314555;19;130435;-35
2022/11/01 11:35:25;;;;;;;;;;;;;;;21.61;65.78;99556.16;7313866;19;131267;-33
2022/11/01 11:37:56;;;;;;;;;;;;;;;21.57;66.08;99565.25;7315036;19;129643;-29
2022/11/01 11:40:23;;;;;;;;;;;;;;;21.62;65.64;99563.88;7306869;19;130377;-40
2022/11/01 11:42:50;;;;;;;;;;;;;;;21.63;65.74;99564.72;7304197;19;130681;-33
2022/11/01 11:45:28;;;;;;;;;;;;;;;21.65;65.98;99571.44;7311155;19;130327;-31
2022/11/01 11:47:55;;;;;;;;;;;;;;;21.61;66.00;99570.09;7312625;19;129658;-31
2022/11/01 11:50:20;;;;;;;;;;;;;;;21.62;65.66;99563.88;7316236;19;129714;-37
2022/11/01 11:52:50;;;;;;;;;;;;;;;21.58;66.08;99566.91;7315069;19;129777;-34
2022/11/01 11:55:35;;;;;;;;;;;;;;;21.62;66.29;99569.09;7314665;19;129134;-35
2022/11/01 11:58:00;;;;;;;;;;;;;;;21.63;66.06;99570.78;7314619;19;129295;-36
2022/11/01 12:00:28;;;;;;;;;;;;;;;21.58;66.32;99578.22;7316314;19;129165;-32
2022/11/01 12:02:54;;;;;;;;;;;;;;;21.60;66.37;99578.06;7313310;19;129247;-29
2022/11/01 12:05:22;;;;;;;;;;;;;;;21.61;66.48;99585.78;7313793;19;129956;-31
2022/11/01 12:07:50;;;;;;;;;;;;;;;21.59;66.54;99579.84;7315629;19;129714;-31
2022/11/01 12:10:29;;;;;;;;;;;;;;;21.60;66.52;99586.72;7315573;19;129740;-28
2022/11/01 12:12:55;;;;;;;;;;;;;;;21.63;66.49;99593.50;7315647;19;128917;-29
2022/11/01 12:15:34;;;;;;;;;;;;;;;21.64;65.63;99588.13;7315376;19;129128;-27
2022/11/01 12:18:14;;;;;;;;;;;;;;;21.51;65.78;99564.03;7310131;19;129555;-34
2022/11/01 12:20:39;;;;;;;;;;;;;;;21.62;66.26;99584.81;7315260;19;129047;-32
2022/11/01 12:23:25;;;;;;;;;;;;;;;21.59;65.84;99587.72;7312116;19;129189;-31
2022/11/01 12:25:51;;;;;;;;;;;;;;;21.64;66.50;99580.25;7314960;19;129010;-30
2022/11/01 12:28:20;;;;;;;;;;;;;;;21.61;66.27;99582.34;7310856;19;129036;-31
2022/11/01 12:30:47;;;;;;;;;;;;;;;21.64;65.80;99595.97;7313390;19;129038;-34
2022/11/01 12:33:26;;;;;;;;;;;;;;;21.60;66.28;99594.56;7313682;19;129212;-33
2022/11/01 12:35:53;;;;;;;;;;;;;;;21.63;66.35;99585.63;7313350;19;129430;-33
2022/11/01 12:38:18;;;;;;;;;;;;;;;21.66;65.67;99583.56;7313666;19;129675;-32
2022/11/01 12:40:47;;;;;;;;;;;;;;;21.64;65.82;99593.34;7313073;19;129474;-35
2022/11/01 12:43:17;;;;;;;;;;;;;;;21.52;66.27;99568.28;7312295;19;129112;-38
2022/11/01 12:46:03;;;;;;;;;;;;;;;21.60;66.32;99581.50;7299735;19;130260;-34